Time;durP1;ratioP1;P1;durP2;ratioP2;P2;SDS_P1;SDS_P2;PMS_P1;PMS_P2;Temp;Humidity;BMP_temperature;BMP_pressure;BME280_temperature;BME280_humidity;BME280_pressure;Samples;Min_cycle;Max_cycle;Signal;HPM_P1;HPM_P2
2022/05/21 00:00:37;;;;;;;13.82;4.07;;;;;;;18.72;100.00;98149.28;4981114;28;20042;-55
2022/05/21 00:03:03;;;;;;;11.18;3.95;;;;;;;18.34;100.00;98147.56;4981636;28;20026;-54
2022/05/21 00:05:30;;;;;;;19.55;4.75;;;;;;;18.76;100.00;98154.22;4981150;28;20093;-55
2022/05/21 00:07:56;;;;;;;11.70;3.67;;;;;;;19.03;100.00;98147.94;4983766;28;20100;-55
2022/05/21 00:10:24;;;;;;;11.52;4.00;;;;;;;18.51;100.00;98141.94;4984633;28;20029;-56
2022/05/21 00:12:50;;;;;;;13.00;4.35;;;;;;;18.38;100.00;98144.63;4985359;28;20640;-54
2022/05/21 00:15:19;;;;;;;13.35;4.32;;;;;;;18.69;100.00;98152.97;4985168;28;20065;-54
2022/05/21 00:17:45;;;;;;;13.68;4.20;;;;;;;18.57;100.00;98143.31;4984841;28;20109;-55
2022/05/21 00:22:56;;;;;;;12.95;4.03;;;;;;;18.44;100.00;98164.47;4984684;28;20122;-55
2022/05/21 00:25:21;;;;;;;17.13;4.18;;;;;;;18.65;100.00;98155.00;4984593;28;20101;-55
2022/05/21 00:27:47;;;;;;;10.30;3.75;;;;;;;18.43;100.00;98162.75;4985253;28;20412;-55
2022/05/21 00:30:13;;;;;;;16.40;3.83;;;;;;;18.40;100.00;98168.28;4984430;28;20041;-55
2022/05/21 00:32:39;;;;;;;17.65;4.70;;;;;;;18.22;100.00;98159.84;4984883;28;20025;-55
2022/05/21 00:35:05;;;;;;;12.73;4.25;;;;;;;18.38;100.00;98171.03;4984619;28;20867;-55
2022/05/21 00:37:31;;;;;;;11.18;3.72;;;;;;;18.25;100.00;98180.72;4984330;28;20030;-55
2022/05/21 00:39:56;;;;;;;14.13;4.18;;;;;;;18.44;100.00;98181.16;4984333;28;20050;-56
2022/05/21 00:42:21;;;;;;;12.48;3.97;;;;;;;18.51;100.00;98176.28;4983697;28;20034;-56
2022/05/21 00:44:46;;;;;;;11.82;3.88;;;;;;;18.58;100.00;98182.81;4984835;28;20579;-54
2022/05/21 00:47:12;;;;;;;9.68;3.70;;;;;;;18.26;100.00;98185.91;4984441;28;20054;-55
2022/05/21 00:49:39;;;;;;;11.93;3.67;;;;;;;18.01;100.00;98188.56;4984315;28;20022;-55
2022/05/21 00:52:10;;;;;;;10.60;3.60;;;;;;;18.24;100.00;98193.09;4983957;28;20039;-54
2022/05/21 00:54:48;;;;;;;12.32;3.95;;;;;;;18.42;100.00;98198.06;4984678;28;20062;-55
2022/05/21 00:57:22;;;;;;;15.93;4.25;;;;;;;18.07;100.00;98199.53;4984065;28;20667;-56
2022/05/21 00:59:51;;;;;;;18.30;4.05;;;;;;;18.87;100.00;98204.53;4999032;28;20081;-55
2022/05/21 01:02:20;;;;;;;14.48;3.67;;;;;;;18.65;100.00;98202.53;4983802;28;20038;-55
2022/05/21 01:04:47;;;;;;;14.57;4.00;;;;;;;18.15;100.00;98206.94;4983996;28;20065;-55
2022/05/21 01:07:14;;;;;;;14.88;3.95;;;;;;;18.21;100.00;98205.66;4983347;28;20045;-55
2022/05/21 01:09:46;;;;;;;18.48;4.05;;;;;;;18.08;100.00;98216.22;4983846;28;20018;-54
2022/05/21 01:12:11;;;;;;;11.13;3.60;;;;;;;18.03;100.00;98223.59;4983722;28;20057;-54
2022/05/21 01:14:37;;;;;;;12.80;4.00;;;;;;;17.61;100.00;98228.13;4983991;28;20026;-54
2022/05/21 01:17:03;;;;;;;15.57;4.07;;;;;;;18.13;100.00;98224.66;4983579;28;20104;-56
2022/05/21 01:19:29;;;;;;;10.65;3.60;;;;;;;18.38;100.00;98231.75;4983732;28;20030;-54
2022/05/21 01:21:55;;;;;;;11.93;3.63;;;;;;;18.03;100.00;98232.38;4983678;28;20065;-55
2022/05/21 01:24:20;;;;;;;11.45;3.20;;;;;;;18.34;100.00;98232.06;4984709;28;20026;-54
2022/05/21 01:26:46;;;;;;;12.13;3.60;;;;;;;17.80;100.00;98233.88;4983737;28;20076;-54
2022/05/21 01:29:21;;;;;;;15.18;4.10;;;;;;;17.58;100.00;98246.81;4983490;28;20023;-54
2022/05/21 01:31:49;;;;;;;8.02;2.75;;;;;;;18.25;100.00;98244.97;4983443;28;20038;-55
2022/05/21 01:34:14;;;;;;;13.43;3.78;;;;;;;18.08;100.00;98242.63;4983808;28;20030;-54
2022/05/21 01:36:39;;;;;;;13.45;3.38;;;;;;;18.19;100.00;98260.38;4983210;28;20038;-55
2022/05/21 01:39:05;;;;;;;15.55;4.22;;;;;;;17.40;100.00;98257.59;4983500;28;20080;-56
2022/05/21 01:41:30;;;;;;;12.60;3.65;;;;;;;17.24;100.00;98272.72;4983169;28;20038;-55
2022/05/21 01:46:39;;;;;;;12.95;3.97;;;;;;;17.45;100.00;98281.88;4982808;28;20095;-54
2022/05/21 01:49:04;;;;;;;12.52;4.00;;;;;;;16.98;100.00;98283.13;4983428;28;20022;-54
2022/05/21 01:51:30;;;;;;;14.10;3.50;;;;;;;17.11;100.00;98291.97;4981283;28;20034;-54
2022/05/21 01:53:55;;;;;;;12.77;3.92;;;;;;;17.09;100.00;98287.72;4983557;28;20056;-55
2022/05/21 01:56:21;;;;;;;15.02;4.40;;;;;;;16.75;100.00;98292.44;4982850;28;20096;-55
2022/05/21 01:58:46;;;;;;;11.48;3.80;;;;;;;17.06;100.00;98293.19;4983390;28;20169;-54
2022/05/21 02:01:12;;;;;;;15.50;3.85;;;;;;;16.22;100.00;98302.63;4981912;28;20096;-56
2022/05/21 02:03:37;;;;;;;17.95;3.85;;;;;;;16.57;100.00;98300.50;4983127;28;20572;-54
2022/05/21 02:06:03;;;;;;;11.35;3.65;;;;;;;16.71;100.00;98301.47;4982702;28;20535;-54
2022/05/21 02:08:28;;;;;;;10.70;3.28;;;;;;;16.99;100.00;98300.63;4983011;28;20168;-54
2022/05/21 02:10:54;;;;;;;9.93;3.33;;;;;;;16.71;100.00;98307.56;4982600;28;20046;-54
2022/05/21 02:13:31;;;;;;;11.57;3.35;;;;;;;16.82;100.00;98317.47;4983249;28;20022;-55
2022/05/21 02:15:57;;;;;;;9.52;3.33;;;;;;;16.61;100.00;98316.97;4982373;28;20046;-55
2022/05/21 02:18:23;;;;;;;12.57;3.35;;;;;;;16.42;100.00;98316.41;4982614;28;20030;-54
2022/05/21 02:20:50;;;;;;;11.63;3.50;;;;;;;16.62;100.00;98318.66;4981773;28;20073;-55
2022/05/21 02:23:16;;;;;;;14.32;4.28;;;;;;;16.56;100.00;98316.41;4982426;28;20141;-55
2022/05/21 02:25:42;;;;;;;13.85;4.15;;;;;;;16.30;100.00;98316.19;4981728;28;20455;-56
2022/05/21 02:28:07;;;;;;;16.40;4.25;;;;;;;16.29;100.00;98325.00;4982716;28;20676;-54
2022/05/21 02:30:33;;;;;;;17.63;5.07;;;;;;;16.32;100.00;98331.88;4981581;28;20082;-55
2022/05/21 02:32:58;;;;;;;14.05;4.25;;;;;;;16.53;100.00;98330.59;4982748;28;20416;-54
2022/05/21 02:35:24;;;;;;;15.70;4.30;;;;;;;16.26;100.00;98338.34;4981909;28;20334;-54
2022/05/21 02:40:33;;;;;;;12.63;4.18;;;;;;;16.07;100.00;98349.09;4981871;28;20181;-54
2022/05/21 02:42:58;;;;;;;14.88;4.28;;;;;;;15.84;100.00;98347.78;4982518;28;20117;-54
2022/05/21 02:45:26;;;;;;;13.10;3.85;;;;;;;16.04;100.00;98353.69;4981827;28;20044;-55
2022/05/21 02:47:53;;;;;;;12.25;3.83;;;;;;;16.04;100.00;98349.28;4982159;28;20045;-55
2022/05/21 02:50:24;;;;;;;12.25;3.42;;;;;;;16.20;100.00;98354.50;4981819;28;20543;-55
2022/05/21 02:52:50;;;;;;;12.73;3.75;;;;;;;16.07;100.00;98354.38;4982068;28;20022;-55
2022/05/21 02:55:17;;;;;;;18.35;4.20;;;;;;;16.18;100.00;98353.75;4982100;28;20037;-54
2022/05/21 02:57:42;;;;;;;12.45;3.88;;;;;;;16.09;100.00;98362.19;4982479;28;20022;-55
2022/05/21 03:00:16;;;;;;;12.85;4.32;;;;;;;15.92;100.00;98366.63;4981699;28;20456;-56
2022/05/21 03:02:41;;;;;;;11.05;3.78;;;;;;;16.06;100.00;98357.09;4982093;28;20030;-56
2022/05/21 03:05:07;;;;;;;15.32;4.40;;;;;;;16.05;100.00;98365.94;4982676;28;20064;-54
2022/05/21 03:07:40;;;;;;;11.40;3.42;;;;;;;16.46;100.00;98360.88;4982011;28;20044;-54
2022/05/21 03:10:22;;;;;;;13.93;4.25;;;;;;;15.88;100.00;98359.84;4981930;28;20815;-54
2022/05/21 03:12:48;;;;;;;11.32;3.38;;;;;;;16.15;100.00;98373.19;4982345;28;20022;-54
2022/05/21 03:15:15;;;;;;;13.25;3.83;;;;;;;15.93;100.00;98364.84;4981324;28;20751;-55
2022/05/21 03:17:40;;;;;;;11.05;3.65;;;;;;;15.86;100.00;98376.63;4981977;28;20077;-54
2022/05/21 03:20:06;;;;;;;12.38;3.72;;;;;;;15.87;100.00;98379.19;4981380;28;20113;-55
2022/05/21 03:22:32;;;;;;;14.95;4.65;;;;;;;15.67;100.00;98376.78;4982404;28;20026;-55
2022/05/21 03:24:58;;;;;;;14.45;3.95;;;;;;;15.78;100.00;98379.69;4982357;28;20034;-55
2022/05/21 03:27:24;;;;;;;11.40;4.03;;;;;;;15.95;100.00;98382.25;4980155;28;20116;-54
2022/05/21 03:29:49;;;;;;;11.90;3.80;;;;;;;15.72;100.00;98380.03;4981961;28;20530;-54
2022/05/21 03:32:15;;;;;;;12.07;3.90;;;;;;;15.81;100.00;98384.81;4981329;28;20042;-53
2022/05/21 03:34:41;;;;;;;17.48;4.22;;;;;;;15.46;100.00;98400.72;4981337;28;20022;-55
2022/05/21 03:37:06;;;;;;;16.17;3.80;;;;;;;15.51;100.00;98392.56;4981323;28;20065;-54
2022/05/21 03:39:32;;;;;;;14.20;4.13;;;;;;;15.33;100.00;98397.03;4981627;28;20597;-54
2022/05/21 03:41:57;;;;;;;14.30;4.00;;;;;;;15.56;100.00;98399.25;4981804;28;20200;-55
2022/05/21 03:44:25;;;;;;;13.85;4.13;;;;;;;15.61;100.00;98394.59;4985776;28;20022;-56
2022/05/21 03:46:51;;;;;;;12.45;4.18;;;;;;;15.71;100.00;98397.56;4985215;28;20527;-55
2022/05/21 03:49:16;;;;;;;12.00;3.80;;;;;;;15.07;100.00;98408.94;4985681;28;20022;-55
2022/05/21 03:51:42;;;;;;;13.57;4.18;;;;;;;15.02;100.00;98411.84;4985164;28;20038;-55
2022/05/21 03:54:07;;;;;;;12.82;4.30;;;;;;;14.91;100.00;98424.69;4986081;28;20030;-56
2022/05/21 03:56:33;;;;;;;19.15;4.72;;;;;;;15.03;100.00;98406.50;4984799;28;20050;-54
2022/05/21 03:58:58;;;;;;;12.63;3.90;;;;;;;15.12;100.00;98418.28;4985755;28;20071;-55
2022/05/21 04:01:23;;;;;;;19.50;4.35;;;;;;;15.26;100.00;98421.97;4983463;28;20125;-55
2022/05/21 04:03:50;;;;;;;13.30;4.00;;;;;;;15.26;100.00;98425.44;4983847;28;20426;-55
2022/05/21 04:06:16;;;;;;;11.32;3.70;;;;;;;15.19;100.00;98419.66;4984174;28;20046;-55
2022/05/21 04:08:41;;;;;;;15.02;3.13;;;;;;;15.86;100.00;98419.59;4984668;28;20025;-55
2022/05/21 04:11:07;;;;;;;12.63;3.60;;;;;;;15.82;100.00;98420.66;4984691;28;20038;-54
2022/05/21 04:13:32;;;;;;;14.82;3.20;;;;;;;15.64;100.00;98419.03;4985316;28;20061;-55
2022/05/21 04:15:57;;;;;;;11.15;3.45;;;;;;;15.62;100.00;98427.00;4984998;28;20052;-55
2022/05/21 04:18:23;;;;;;;15.77;4.20;;;;;;;15.12;100.00;98420.91;4985347;28;20042;-55
2022/05/21 04:20:49;;;;;;;11.65;3.33;;;;;;;15.58;100.00;98426.31;4984436;28;20062;-56
2022/05/21 04:23:14;;;;;;;9.15;3.17;;;;;;;15.15;100.00;98423.38;4983786;28;20052;-54
2022/05/21 04:25:39;;;;;;;14.63;4.22;;;;;;;15.14;100.00;98432.19;4984456;28;20043;-54
2022/05/21 04:28:05;;;;;;;12.23;3.47;;;;;;;15.08;100.00;98439.56;4985168;28;20029;-54
2022/05/21 04:30:31;;;;;;;12.27;3.65;;;;;;;15.62;100.00;98429.63;4984453;28;20034;-54
2022/05/21 04:32:58;;;;;;;19.48;4.15;;;;;;;15.73;100.00;98434.31;4984876;28;20057;-56
2022/05/21 04:36:17;;;;;;;16.10;3.88;;;;;;;15.34;100.00;98451.31;4984977;28;20034;-54
2022/05/21 04:38:11;;;;;;;9.63;3.13;;;;;;;15.78;100.00;98450.72;4984295;28;20031;-55
2022/05/21 04:40:36;;;;;;;10.15;3.38;;;;;;;15.83;100.00;98446.06;4984385;28;20053;-56
2022/05/21 04:43:01;;;;;;;11.35;3.45;;;;;;;15.78;100.00;98461.25;4984921;28;20058;-55
2022/05/21 04:45:27;;;;;;;9.02;3.33;;;;;;;15.95;100.00;98457.66;4984793;28;20482;-55
2022/05/21 04:47:52;;;;;;;12.95;3.45;;;;;;;15.57;100.00;98461.44;4984644;28;20061;-54
2022/05/21 04:50:17;;;;;;;11.00;3.60;;;;;;;15.85;100.00;98465.22;4984287;28;20048;-56
2022/05/21 04:52:43;;;;;;;7.53;2.83;;;;;;;16.23;100.00;98461.38;4984068;28;20030;-54
2022/05/21 04:55:09;;;;;;;10.48;3.40;;;;;;;15.72;100.00;98469.44;4988315;28;20680;-55
2022/05/21 04:57:34;;;;;;;10.88;3.80;;;;;;;16.36;100.00;98457.13;4984628;28;20464;-54
2022/05/21 04:59:59;;;;;;;11.93;3.47;;;;;;;15.93;100.00;98463.00;4984356;28;20026;-56
2022/05/21 05:02:25;;;;;;;8.88;3.10;;;;;;;16.24;100.00;98456.03;4984158;28;20530;-55
2022/05/21 05:04:50;;;;;;;12.57;3.30;;;;;;;15.88;100.00;98457.19;4984589;28;20468;-57
2022/05/21 05:07:19;;;;;;;14.05;3.65;;;;;;;16.43;100.00;98450.59;4983045;28;20085;-54
2022/05/21 05:09:45;;;;;;;11.88;3.20;;;;;;;16.37;100.00;98451.75;4983995;28;20018;-54
2022/05/21 05:12:11;;;;;;;13.80;3.45;;;;;;;16.57;100.00;98453.22;4983390;28;20042;-54
2022/05/21 05:14:37;;;;;;;10.70;2.80;;;;;;;17.54;100.00;98449.25;4984308;28;20037;-56
2022/05/21 05:17:04;;;;;;;10.50;3.60;;;;;;;16.24;100.00;98450.78;4983221;28;20038;-55
2022/05/21 05:19:31;;;;;;;10.77;3.20;;;;;;;16.47;100.00;98441.56;4983626;28;20030;-57
2022/05/21 05:21:57;;;;;;;10.63;3.58;;;;;;;16.40;100.00;98436.75;4983625;28;20494;-56
2022/05/21 05:24:22;;;;;;;9.27;2.97;;;;;;;16.07;100.00;98438.56;4984065;28;20571;-55
2022/05/21 05:26:48;;;;;;;8.20;2.58;;;;;;;17.14;100.00;98444.63;4983641;28;20097;-56
2022/05/21 05:29:13;;;;;;;9.85;3.15;;;;;;;16.28;100.00;98447.03;4983859;28;20057;-55
2022/05/21 05:31:38;;;;;;;9.18;3.10;;;;;;;16.64;100.00;98445.84;4983491;28;20801;-55
2022/05/21 05:34:04;;;;;;;6.68;2.75;;;;;;;16.93;100.00;98451.22;4983999;28;20432;-55
2022/05/21 05:36:29;;;;;;;11.18;3.17;;;;;;;18.97;100.00;98442.63;4983395;28;20677;-55
2022/05/21 05:38:58;;;;;;;7.85;2.40;;;;;;;20.53;100.00;98443.00;4983803;28;20113;-56
2022/05/21 05:41:23;;;;;;;7.15;2.70;;;;;;;20.29;100.00;98442.16;4983188;28;20491;-56
2022/05/21 05:43:52;;;;;;;8.07;2.60;;;;;;;20.76;100.00;98448.41;4983212;28;20586;-56
2022/05/21 05:46:17;;;;;;;7.35;2.40;;;;;;;21.54;100.00;98452.13;4973410;28;20038;-56
2022/05/21 05:48:42;;;;;;;9.63;2.72;;;;;;;20.77;100.00;98452.75;4983168;28;20030;-57
2022/05/21 05:51:08;;;;;;;8.50;2.60;;;;;;;24.50;90.31;98443.09;4983011;28;20213;-56
2022/05/21 05:53:33;;;;;;;5.75;2.05;;;;;;;23.13;85.69;98448.03;4983876;28;20030;-55
2022/05/21 05:55:58;;;;;;;5.65;2.60;;;;;;;23.65;74.57;98448.84;4983412;28;20046;-56
2022/05/21 06:01:08;;;;;;;4.43;2.10;;;;;;;23.93;74.80;98446.44;4983072;28;20116;-54
2022/05/21 06:03:34;;;;;;;7.03;2.30;;;;;;;25.06;67.25;98455.72;4983676;28;20431;-55
2022/05/21 06:06:01;;;;;;;7.50;2.33;;;;;;;23.77;65.94;98451.41;4982249;28;20042;-55
2022/05/21 06:08:26;;;;;;;4.28;2.00;;;;;;;27.35;58.88;98451.19;4983450;28;20113;-56
2022/05/21 06:10:52;;;;;;;9.30;2.70;;;;;;;26.28;58.75;98452.97;4982843;28;20457;-56
2022/05/21 06:13:17;;;;;;;6.10;1.83;;;;;;;25.80;63.96;98451.41;4983265;28;20034;-56
2022/05/21 06:15:43;;;;;;;8.30;2.00;;;;;;;27.76;57.77;98450.53;4982890;28;20041;-56
2022/05/21 06:18:14;;;;;;;5.03;2.10;;;;;;;26.21;58.82;98457.25;4982914;28;20452;-56
2022/05/21 06:20:41;;;;;;;4.30;2.40;;;;;;;24.60;59.16;98449.31;4982553;28;20049;-54
2022/05/21 06:23:07;;;;;;;6.80;2.08;;;;;;;26.56;57.64;98450.22;4983202;28;20041;-57
2022/05/21 06:25:34;;;;;;;5.22;1.90;;;;;;;27.53;54.19;98453.78;4982938;28;20189;-56
2022/05/21 06:28:02;;;;;;;6.00;2.20;;;;;;;27.55;51.75;98450.94;4981572;28;20034;-54
2022/05/21 06:30:30;;;;;;;4.18;1.95;;;;;;;28.42;51.87;98454.25;4982324;28;20181;-55
2022/05/21 06:32:56;;;;;;;5.50;2.20;;;;;;;26.89;50.93;98463.88;4982608;28;20902;-57
2022/05/21 06:35:22;;;;;;;3.35;1.80;;;;;;;26.33;50.10;98456.00;4982533;28;20041;-55
2022/05/21 06:37:48;;;;;;;5.55;1.92;;;;;;;24.42;57.24;98467.81;4983026;28;20034;-55
2022/05/21 06:40:15;;;;;;;5.70;2.10;;;;;;;23.50;63.14;98465.31;4982052;28;20030;-54
2022/05/21 06:42:41;;;;;;;3.75;1.92;;;;;;;24.65;59.44;98471.09;4982677;28;20113;-56
2022/05/21 06:45:08;;;;;;;7.47;2.30;;;;;;;24.77;57.15;98477.94;4982708;28;20072;-55
2022/05/21 06:47:33;;;;;;;8.50;2.00;;;;;;;25.05;57.26;98471.88;4982271;28;20435;-54
2022/05/21 06:49:59;;;;;;;6.03;1.90;;;;;;;23.37;63.84;98470.84;4982555;28;20761;-54
2022/05/21 06:52:27;;;;;;;6.63;2.13;;;;;;;23.01;68.72;98475.63;4982237;28;20724;-54
2022/05/21 06:54:54;;;;;;;4.60;2.10;;;;;;;21.82;74.38;98479.19;4982992;28;20105;-54
2022/05/21 06:57:21;;;;;;;6.28;2.45;;;;;;;21.24;82.93;98480.06;4982170;28;20038;-55
2022/05/21 06:59:47;;;;;;;6.85;2.50;;;;;;;21.45;81.68;98490.00;4982199;28;20030;-54
2022/05/21 07:02:12;;;;;;;6.25;2.03;;;;;;;21.15;78.80;98483.44;4981990;28;20413;-54
2022/05/21 07:07:43;;;;;;;6.45;2.40;;;;;;;22.90;72.12;98474.75;4982218;28;20190;-54
2022/05/21 07:10:12;;;;;;;5.25;2.03;;;;;;;22.77;69.87;98474.06;4979461;28;20903;-53
2022/05/21 07:12:37;;;;;;;7.22;2.90;;;;;;;21.88;76.94;98470.72;4973154;28;20026;-54
2022/05/21 07:15:05;;;;;;;9.32;2.40;;;;;;;22.60;78.37;98472.00;4978126;28;20038;-54
2022/05/21 07:17:30;;;;;;;7.07;2.30;;;;;;;21.42;86.97;98479.63;4976720;28;20149;-55
2022/05/21 07:19:56;;;;;;;5.60;2.13;;;;;;;22.31;80.74;98477.88;4977113;28;20125;-55
2022/05/21 07:22:22;;;;;;;6.20;2.50;;;;;;;21.63;86.24;98471.81;4976207;28;20049;-55
2022/05/21 07:24:48;;;;;;;4.32;2.00;;;;;;;21.27;94.65;98477.19;4982794;28;20113;-55
2022/05/21 07:27:14;;;;;;;7.97;2.60;;;;;;;22.90;71.57;98474.75;4973616;28;20038;-55
2022/05/21 07:29:41;;;;;;;6.05;2.28;;;;;;;23.10;67.86;98469.56;4975183;28;20109;-55
2022/05/21 07:32:19;;;;;;;4.72;2.08;;;;;;;21.73;72.18;98468.31;4976161;28;20471;-54
2022/05/21 07:34:45;;;;;;;7.97;2.55;;;;;;;20.78;79.67;98478.28;4978820;28;20054;-54
2022/05/21 07:37:10;;;;;;;8.38;2.88;;;;;;;21.82;73.23;98472.06;4978458;28;20041;-56
2022/05/21 07:39:35;;;;;;;9.38;2.60;;;;;;;22.95;74.56;98465.53;4978527;28;20018;-55
2022/05/21 07:42:01;;;;;;;5.95;2.42;;;;;;;22.49;77.51;98476.38;4977983;28;20038;-54
2022/05/21 07:44:26;;;;;;;8.70;2.70;;;;;;;21.66;88.42;98467.09;4975968;28;20027;-56
2022/05/21 07:46:52;;;;;;;5.85;2.25;;;;;;;22.24;84.17;98472.22;4978248;28;20463;-56
2022/05/21 07:49:17;;;;;;;7.97;2.75;;;;;;;23.58;68.03;98462.81;4978747;28;20110;-56
2022/05/21 07:51:42;;;;;;;6.55;2.40;;;;;;;26.40;57.47;98466.94;4977419;28;20133;-56
2022/05/21 07:54:07;;;;;;;10.00;2.60;;;;;;;24.80;58.08;98469.66;4978107;28;20060;-57
2022/05/21 07:56:33;;;;;;;8.55;2.80;;;;;;;26.64;52.12;98460.19;4976572;28;20042;-57
2022/05/21 07:58:58;;;;;;;6.35;2.25;;;;;;;26.49;54.45;98473.22;4976539;28;20026;-56
2022/05/21 08:01:24;;;;;;;6.50;2.10;;;;;;;25.32;53.34;98481.81;4976883;28;20069;-55
2022/05/21 08:03:49;;;;;;;6.90;1.92;;;;;;;28.15;47.61;98468.78;4978628;28;20753;-57
2022/05/21 08:06:15;;;;;;;4.50;2.10;;;;;;;24.94;54.78;98480.88;4978183;28;20459;-55
2022/05/21 08:08:41;;;;;;;3.88;1.83;;;;;;;25.33;51.41;98478.19;4978470;28;20030;-56
2022/05/21 08:11:06;;;;;;;4.20;2.15;;;;;;;24.70;52.36;98478.66;4977630;28;20038;-56
2022/05/21 08:13:34;;;;;;;3.90;1.98;;;;;;;24.98;54.12;98476.97;4976482;28;20023;-56
2022/05/21 08:16:00;;;;;;;5.13;2.22;;;;;;;25.11;58.53;98473.97;4976941;28;20042;-56
2022/05/21 08:18:26;;;;;;;8.00;2.00;;;;;;;24.72;55.23;98479.34;4978640;28;20029;-55
2022/05/21 08:20:53;;;;;;;5.97;1.95;;;;;;;25.92;53.57;98482.31;4978180;28;20346;-56
2022/05/21 08:28:49;;;;;;;6.40;2.35;;;;;;;26.97;49.57;98482.69;4968426;28;20096;-56
2022/05/21 08:31:15;;;;;;;4.78;2.53;;;;;;;27.70;47.92;98476.16;4980011;28;20050;-56
2022/05/21 08:33:40;;;;;;;4.75;2.17;;;;;;;27.56;48.97;98479.44;4982041;28;20036;-56
2022/05/21 08:36:06;;;;;;;5.47;2.20;;;;;;;27.35;47.63;98477.97;4981188;28;20162;-57
2022/05/21 08:38:31;;;;;;;5.65;2.10;;;;;;;26.24;49.67;98478.31;4981650;28;20109;-55
2022/05/21 08:41:11;;;;;;;6.40;2.55;;;;;;;26.71;49.83;98470.09;4980317;28;20042;-55
2022/05/21 08:43:49;;;;;;;4.80;2.13;;;;;;;27.12;49.05;98472.25;4979386;28;20047;-54
2022/05/21 08:46:42;;;;;;;5.32;2.33;;;;;;;26.38;47.69;98468.13;4980017;28;20034;-58
2022/05/21 08:49:29;;;;;;;6.57;2.55;;;;;;;25.83;48.32;98469.81;4981821;28;20029;-58
2022/05/21 08:52:44;;;;;;;3.85;1.98;;;;;;;26.01;49.74;98482.41;4981261;28;20595;-56
2022/05/21 08:55:15;;;;;;;4.05;2.00;;;;;;;26.19;49.38;98483.25;4966028;28;20058;-56
2022/05/21 08:57:48;;;;;;;6.40;2.10;;;;;;;26.19;49.58;98488.63;4979790;28;20635;-57
2022/05/21 09:00:26;;;;;;;5.13;2.20;;;;;;;27.48;47.26;98467.66;4978251;28;20168;-56
2022/05/21 09:02:54;;;;;;;8.32;2.03;;;;;;;28.21;43.75;98474.34;4981575;28;20113;-56
2022/05/21 09:05:21;;;;;;;5.20;1.92;;;;;;;26.57;46.59;98465.28;4980829;28;20556;-55
2022/05/21 09:08:03;;;;;;;5.57;2.15;;;;;;;26.89;46.78;98467.41;4981465;28;20022;-56
2022/05/21 09:10:31;;;;;;;4.53;2.20;;;;;;;26.37;48.78;98463.75;4980798;28;20070;-56
2022/05/21 09:13:20;;;;;;;4.50;2.30;;;;;;;25.94;50.71;98468.81;4979572;28;20073;-56
2022/05/21 09:18:31;;;;;;;6.10;2.35;;;;;;;28.58;45.07;98462.38;4980900;28;20710;-56
2022/05/21 09:21:02;;;;;;;8.85;2.72;;;;;;;28.28;43.11;98458.44;4980372;28;20038;-57
2022/05/21 09:23:58;;;;;;;6.95;2.50;;;;;;;26.18;47.44;98456.72;4980728;28;20068;-57
2022/05/21 09:26:30;;;;;;;5.75;2.47;;;;;;;26.01;48.25;98453.00;4971291;28;20138;-55
2022/05/21 09:29:28;;;;;;;5.47;2.53;;;;;;;26.49;42.78;98443.81;4978621;28;20064;-56
2022/05/21 09:31:55;;;;;;;4.32;2.15;;;;;;;26.96;45.36;98451.56;4980097;28;20049;-57
2022/05/21 09:34:30;;;;;;;4.88;2.10;;;;;;;26.73;46.41;98446.72;4980439;28;20094;-57
2022/05/21 09:36:56;;;;;;;6.28;2.45;;;;;;;26.33;46.67;98444.50;4978638;28;20083;-57
2022/05/21 09:39:38;;;;;;;6.13;2.45;;;;;;;27.21;43.86;98424.97;4975294;28;20018;-56
2022/05/21 09:45:23;;;;;;;4.55;2.05;;;;;;;25.94;48.88;98442.91;4978404;28;20037;-56
2022/05/21 09:47:49;;;;;;;4.05;2.00;;;;;;;26.37;45.56;98437.00;4979865;28;20126;-60
2022/05/21 09:50:21;;;;;;;5.78;2.20;;;;;;;24.37;48.78;98438.03;4979218;28;20014;-56
2022/05/21 09:52:49;;;;;;;7.18;2.22;;;;;;;26.28;47.33;98444.97;4980362;28;20076;-58
2022/05/21 09:55:32;;;;;;;7.05;2.67;;;;;;;26.76;46.87;98439.38;4979210;28;20794;-55
2022/05/21 09:58:13;;;;;;;5.72;2.22;;;;;;;25.50;48.30;98441.84;4978550;28;20033;-55
2022/05/21 10:00:38;;;;;;;7.63;2.50;;;;;;;26.70;47.62;98449.69;4975465;28;20112;-57
2022/05/21 10:03:09;;;;;;;9.02;2.88;;;;;;;26.89;47.08;98450.50;4978401;28;20694;-57
2022/05/21 10:05:40;;;;;;;5.50;2.10;;;;;;;26.23;46.88;98444.56;4979267;28;20913;-57
2022/05/21 10:11:21;;;;;;;10.35;2.60;;;;;;;25.83;48.74;98442.25;4979246;28;20053;-57
2022/05/21 10:14:13;;;;;;;4.97;2.00;;;;;;;26.16;48.17;98435.47;4978386;28;20026;-58
2022/05/21 10:16:41;;;;;;;6.72;2.17;;;;;;;27.25;47.89;98437.03;4979221;28;20801;-56
2022/05/21 10:19:21;;;;;;;10.48;2.53;;;;;;;27.04;48.99;98432.88;4979957;28;20034;-58
2022/05/21 10:22:08;;;;;;;8.13;2.55;;;;;;;26.61;48.91;98439.91;4979569;28;20149;-56
2022/05/21 10:24:55;;;;;;;11.85;2.63;;;;;;;27.02;47.88;98429.53;4979683;28;20030;-57
2022/05/21 10:27:29;;;;;;;9.75;3.05;;;;;;;27.25;46.59;98429.00;4977511;28;20046;-57
2022/05/21 10:30:06;;;;;;;6.80;2.50;;;;;;;25.95;48.46;98427.72;4975545;28;20597;-56
2022/05/21 10:32:37;;;;;;;12.07;2.90;;;;;;;27.32;45.77;98423.88;4976058;28;20038;-56
2022/05/21 10:35:20;;;;;;;6.35;2.15;;;;;;;26.93;46.19;98414.41;4979166;28;20034;-56
2022/05/21 10:37:59;;;;;;;5.88;2.30;;;;;;;26.11;45.24;98408.34;4979415;28;20038;-58
2022/05/21 10:40:51;;;;;;;7.70;2.60;;;;;;;28.63;43.02;98409.00;4978533;28;20030;-56
2022/05/21 10:43:54;;;;;;;8.13;3.15;;;;;;;25.47;46.72;98410.91;4976947;28;20121;-58
2022/05/21 10:46:40;;;;;;;7.57;2.70;;;;;;;24.87;49.73;98423.72;4978026;28;20039;-56
2022/05/21 10:50:03;;;;;;;6.32;2.35;;;;;;;25.54;47.99;98412.00;4979830;28;20046;-58
2022/05/21 10:52:47;;;;;;;10.98;2.63;;;;;;;26.46;46.71;98412.00;4958813;28;20047;-56
2022/05/21 10:55:22;;;;;;;8.38;2.63;;;;;;;26.65;45.04;98401.19;4955248;28;20026;-55
2022/05/21 10:58:09;;;;;;;6.15;2.20;;;;;;;26.24;46.59;98398.09;4966623;28;20041;-57
2022/05/21 11:01:05;;;;;;;5.63;1.90;;;;;;;25.79;47.48;98409.66;4976807;28;20769;-57
2022/05/21 11:04:06;;;;;;;5.93;2.00;;;;;;;26.38;48.36;98401.25;4979322;28;20042;-57
2022/05/21 11:06:50;;;;;;;8.65;2.83;;;;;;;26.29;47.91;98408.34;4970231;28;20124;-60
2022/05/21 11:09:32;;;;;;;10.10;2.83;;;;;;;25.00;48.61;98397.59;4978502;28;20030;-56
2022/05/21 11:12:11;;;;;;;8.88;2.90;;;;;;;25.72;49.28;98406.72;4976498;28;20049;-57
2022/05/21 11:14:59;;;;;;;7.55;2.58;;;;;;;26.42;46.14;98406.13;4976319;28;20026;-58
2022/05/21 11:17:46;;;;;;;8.32;2.50;;;;;;;26.93;46.28;98393.00;4978294;28;20038;-56
2022/05/21 11:20:30;;;;;;;8.50;2.65;;;;;;;26.04;45.57;98401.91;4974268;28;20023;-56
2022/05/21 11:23:08;;;;;;;9.43;3.10;;;;;;;27.20;46.31;98402.69;4977182;28;20031;-55
2022/05/21 11:25:41;;;;;;;8.68;2.55;;;;;;;26.86;46.29;98386.59;4978525;28;20535;-57
2022/05/21 11:28:26;;;;;;;7.15;2.28;;;;;;;27.59;43.77;98390.66;4977335;28;20641;-57
2022/05/21 11:30:56;;;;;;;11.52;2.85;;;;;;;26.21;47.98;98392.22;4976676;28;20117;-56
2022/05/21 11:37:20;;;;;;;6.93;2.28;;;;;;;25.59;48.29;98398.22;4975465;28;20721;-57
2022/05/21 11:39:13;;;;;;;7.30;2.35;;;;;;;26.74;47.05;98391.34;4975963;28;20037;-56
2022/05/21 11:41:59;;;;;;;8.18;2.78;;;;;;;24.89;48.73;98395.94;4992003;28;20340;-55
2022/05/21 11:47:21;;;;;;;6.25;2.13;;;;;;;25.64;49.57;98381.75;4978073;28;20838;-56
2022/05/21 11:49:49;;;;;;;7.28;2.47;;;;;;;24.91;49.65;98377.94;4975820;28;20019;-56
2022/05/21 11:52:26;;;;;;;10.38;3.08;;;;;;;24.50;48.38;98379.09;4974771;28;20050;-55
2022/05/21 11:54:55;;;;;;;9.15;2.80;;;;;;;24.89;49.42;98379.09;4978831;28;20485;-55
2022/05/21 11:57:50;;;;;;;13.15;3.45;;;;;;;25.57;47.97;98395.69;4976744;28;20045;-56
2022/05/21 12:00:18;;;;;;;9.65;2.88;;;;;;;24.81;48.75;98388.66;4974957;28;20033;-56
2022/05/21 12:03:05;;;;;;;9.73;2.70;;;;;;;26.14;47.86;98375.97;4978928;28;20125;-55
2022/05/21 12:05:33;;;;;;;11.60;3.20;;;;;;;25.29;47.50;98377.97;4981237;28;20091;-55
2022/05/21 12:08:35;;;;;;;10.50;2.60;;;;;;;25.48;48.51;98369.06;4982008;28;20475;-57
2022/05/21 12:11:09;;;;;;;8.55;2.83;;;;;;;24.67;48.15;98369.59;4980997;28;20049;-55